Latest Weather Observations for Mortlake

IDV60801

Issued at 4:02 pm EDT Friday 20 October 2017 (issued every 30 minutes, with the page automatically refreshed every 10 minutes)

About weather observations | Map of weather stations | Latest weather observations for VIC | Other Formats
Station Details ID: 090176 Name: MORTLAKE RACECOURSE Lat: -38.07 Lon: 142.77 Height: 130.0 m
Data from the previous 72 hours. | See also: Recent months at Mortlake
Date/Time
EDT
Temp
°C
App
Temp
°C
Dew
Point
°C
Rel
Hum
%
Delta-T
°C
Wind Press
QNH
hPa
Press
MSL
hPa
Rain since
9am
mm
Dir  Spd
km/h
Gust
km/h
Spd
kts
Gust
kts
20/04:00pm 12.5 6.5 5.4 62 3.3 SSW 26 33 14 18 1029.2 1029.3 0.2
20/03:30pm 13.8 8.0 6.2 60 3.6 SSW 26 37 14 20 1029.2 1029.3 0.2
20/03:00pm 14.1 8.7 6.2 59 3.8 SSW 24 37 13 20 1029.2 1029.3 0.2
20/02:30pm 14.1 8.7 6.5 60 3.7 SSW 24 35 13 19 1029.4 1029.5 0.2
20/02:00pm 14.3 9.1 7.1 62 3.5 SSW 24 33 13 18 1029.4 1029.5 0.2
20/01:30pm 14.1 9.3 7.4 64 3.3 SSW 22 35 12 19 1029.3 1029.4 0.2
20/01:00pm 13.7 8.9 7.5 66 3.0 SSW 22 33 12 18 1029.3 1029.4 0.2
20/12:30pm 14.2 9.0 5.3 55 4.2 SSW 22 32 12 17 1029.4 1029.5 0.2
20/12:00pm 14.0 8.5 5.9 58 3.8 SSW 24 39 13 21 1029.5 1029.6 0.2
20/11:30am 13.5 8.2 6.8 64 3.3 SSW 24 30 13 16 1029.5 1029.6 0.0
20/11:00am 12.2 6.3 7.5 73 2.3 SW 28 35 15 19 1029.5 1029.6 0.0
20/10:30am 11.8 7.3 5.9 67 2.8 SSW 19 26 10 14 1029.2 1029.3 0.0
20/10:00am 12.7 8.4 8.0 73 2.3 SSW 20 26 11 14 1028.9 1029.0 0.0
20/09:30am 12.4 7.5 6.9 69 2.7 SSW 22 30 12 16 1028.5 1028.6 0.0
20/09:00am 11.7 7.3 7.2 74 2.2 SSW 20 32 11 17 1028.3 1028.4 0.4
20/08:30am 10.2 8.2 8.5 89 0.8 SW 9 17 5 9 1027.9 1028.0 0.4
20/08:00am 9.0 6.9 8.1 94 0.4 SSW 9 13 5 7 1027.6 1027.7 0.4
20/07:30am 6.6 4.8 5.4 92 0.5 WSW 4 6 2 3 1027.2 1027.3 0.4
20/07:00am 6.3 4.0 4.8 90 0.7 WSW 6 6 3 3 1026.7 1026.8 0.4
20/06:30am 6.3 4.4 5.1 92 0.5 WSW 4 7 2 4 1026.3 1026.4 0.4
20/06:00am 6.5 4.2 5.5 93 0.4 SW 7 9 4 5 1025.9 1026.0 0.4
20/05:30am 6.8 4.1 5.7 93 0.5 WSW 9 11 5 6 1025.5 1025.6 0.4
20/05:00am 7.2 4.6 6.1 93 0.5 WSW 9 11 5 6 1025.3 1025.4 0.4
20/04:30am 7.7 5.3 7.0 95 0.3 WSW 9 11 5 6 1025.1 1025.1 0.4
20/04:00am 8.7 7.0 8.4 98 0.1 WSW 7 9 4 5 1024.9 1024.9 0.4
20/03:30am 9.3 7.4 9.2 99 0.0 WSW 9 13 5 7 1024.7 1024.7 0.4
20/03:00am 9.3 7.5 9.3 100 0.0 WSW 9 13 5 7 1024.6 1024.6 0.4
20/02:30am 8.7 5.9 8.7 100 0.0 SW 13 17 7 9 1024.6 1024.6 0.4
20/02:00am 9.2 6.6 9.2 100 0.0 W 13 20 7 11 1024.5 1024.5 0.4
20/01:30am 9.2 7.3 9.2 100 0.0 W 9 15 5 8 1024.7 1024.7 0.4
20/01:00am 8.6 7.0 8.6 100 0.0 WNW 7 11 4 6 1024.6 1024.6 0.4
20/12:30am 7.2 4.8 7.1 99 0.0 NNW 9 11 5 6 1024.5 1024.5 0.2
20/12:00am 7.0 5.1 6.7 98 0.1 NW 6 9 3 5 1024.4 1024.4 0.2
 
Date/Time
EDT
Temp
°C
App
Temp
°C
Dew
Point
°C
Rel
Hum
%
Delta-T
°C
Wind Press
QNH
hPa
Press
MSL
hPa
Rain since
9am
mm
Dir  Spd
km/h
Gust
km/h
Spd
kts
Gust
kts
19/11:30pm 7.1 4.6 6.4 95 0.3 NNW 9 9 5 5 1024.2 1024.2 0.2
19/11:00pm 7.6 5.4 6.2 91 0.6 NNW 7 9 4 5 1024.1 1024.1 0.2
19/10:30pm 9.5 7.6 7.6 88 0.9 W 7 13 4 7 1023.9 1023.9 0.2
19/10:00pm 9.7 7.8 7.5 86 1.0 W 7 13 4 7 1023.8 1023.8 0.2
19/09:30pm 10.0 8.0 7.3 83 1.3 W 7 9 4 5 1023.4 1023.4 0.2
19/09:00pm 10.3 8.4 7.5 83 1.3 W 7 11 4 6 1023.1 1023.1 0.2
19/08:30pm 10.8 7.8 7.7 81 1.5 WSW 13 19 7 10 1022.5 1022.5 0.2
19/08:00pm 11.6 8.1 7.3 75 2.1 WSW 15 24 8 13 1022.1 1022.1 0.2
19/07:30pm 12.3 8.0 7.0 70 2.6 WSW 19 30 10 16 1021.1 1021.2 0.2
19/07:00pm 13.9 9.6 9.3 74 2.4 SW 22 33 12 18 1020.7 1020.8 0.2
19/06:30pm 13.9 8.9 9.7 76 2.2 SW 26 35 14 19 1020.5 1020.6 0.2
19/06:00pm 14.4 9.0 9.4 72 2.6 SW 28 37 15 20 1020.2 1020.3 0.2
19/05:30pm 14.5 9.3 10.1 75 2.3 SW 28 35 15 19 1020.3 1020.4 0.2
19/05:00pm 15.3 10.7 10.9 75 2.3 SW 26 32 14 17 1020.0 1020.1 0.2
19/04:30pm 15.4 10.8 11.0 75 2.4 SW 26 35 14 19 1019.9 1020.0 0.2
19/04:00pm 15.2 10.6 11.2 77 2.1 SW 26 33 14 18 1019.5 1019.6 0.2
19/03:30pm 16.1 11.8 12.1 77 2.2 SW 26 33 14 18 1019.5 1019.6 0.2
19/03:00pm 16.1 11.9 12.3 78 2.1 WSW 26 39 14 21 1019.2 1019.3 0.2
19/02:30pm 16.4 11.8 13.5 83 1.6 WSW 30 43 16 23 1018.8 1018.9 0.2
19/02:00pm 15.5 10.7 13.9 90 0.9 WSW 32 43 17 23 1018.3 1018.3 0.2
19/01:30pm 16.9 14.2 15.6 92 0.8 WSW 24 35 13 19 1017.8 1017.8 0.2
19/01:00pm 16.3 14.1 16.0 98 0.2 WSW 22 32 12 17 1017.5 1017.5 0.2
19/12:30pm 20.0 18.6 16.6 81 2.1 W 19 30 10 16 1016.6 1016.6 0.2
19/12:00pm 19.9 17.5 16.5 81 2.1 WNW 24 35 13 19 1016.4 1016.4 0.0
19/11:30am 20.1 18.9 17.1 83 1.8 WNW 19 26 10 14 1016.3 1016.3 0.0
19/11:00am 20.4 19.3 17.8 85 1.6 NW 20 28 11 15 1015.9 1015.9 0.0
19/10:30am 19.5 19.1 18.0 91 0.9 NNW 17 24 9 13 1015.6 1015.6 0.0
19/10:00am 18.6 18.8 18.6 100 0.0 N 15 20 8 11 1015.7 1015.7 0.0
19/09:30am 17.6 18.2 17.6 100 0.0 N 11 17 6 9 1015.1 1015.1 0.0
19/09:00am 17.1 17.8 17.1 100 0.0 N 9 15 5 8 1015.5 1015.5 13.4
19/08:30am 16.6 16.7 16.6 100 0.0 N 11 15 6 8 1015.2 1015.2 13.4
19/08:00am 16.2 15.8 16.2 100 0.0 NNE 13 17 7 9 1014.7 1014.7 13.4
19/07:30am 15.9 15.4 15.9 100 0.0 NNE 13 20 7 11 1014.6 1014.6 13.4
19/07:00am 15.9 16.5 15.9 100 0.0 NNE 7 9 4 5 1015.3 1015.3 13.4
19/06:30am 15.7 17.2 15.7 100 0.0 SSW 2 7 1 4 1015.3 1015.3 13.2
19/06:00am 15.7 17.2 15.7 100 0.0 SSW 2 4 1 2 1015.3 1015.3 11.0
19/05:30am 15.9 17.1 15.9 100 0.0 SSW 4 4 2 2 1015.1 1015.1 6.6
19/05:00am 15.8 17.3 15.8 100 0.0 SSW 2 4 1 2 1014.9 1014.9 4.6
19/04:30am 15.9 16.2 15.9 100 0.0 WSW 9 13 5 7 1015.2 1015.2 2.2
19/04:00am 16.3 16.5 15.7 96 0.4 WSW 9 13 5 7 1015.0 1015.0 0.4
19/03:30am 17.6 16.3 14.7 83 1.7 SW 15 20 8 11 1015.1 1015.1 0.0
19/03:00am 20.8 18.8 14.0 65 4.0 W 17 24 9 13 1014.4 1014.4 0.0
19/02:30am 21.4 17.5 14.3 64 4.2 N 28 39 15 21 1012.7 1012.8 0.0
19/02:00am 22.2 18.2 14.1 60 4.8 N 28 43 15 23 1012.9 1013.0 0.0
19/01:31am 22.2 17.5 13.3 57 5.2 N 30 48 16 26 1013.3 1013.4 0.0
19/01:30am 22.1 17.8 13.2 57 5.1 N 28 41 15 22 1013.4 1013.5 0.0
19/01:00am 19.6 16.6 12.1 62 4.2 N 19 24 10 13 1013.6 1013.7 0.0
19/12:30am 20.0 17.3 11.8 59 4.6 N 17 24 9 13 1014.3 1014.3 0.0
19/12:00am 22.4 19.0 11.2 49 6.3 N 20 28 11 15 1014.5 1014.5 0.0
 
Date/Time
EDT
Temp
°C
App
Temp
°C
Dew
Point
°C
Rel
Hum
%
Delta-T
°C
Wind Press
QNH
hPa
Press
MSL
hPa
Rain since
9am
mm
Dir  Spd
km/h
Gust
km/h
Spd
kts
Gust
kts
18/11:30pm 18.4 16.0 12.6 69 3.3 NNW 17 33 9 18 1015.6 1015.6 0.0
18/11:00pm 19.7 17.7 12.7 64 4.0 NNE 15 19 8 10 1014.8 1014.8 0.0
18/10:30pm 18.7 16.4 12.9 69 3.3 NNE 17 19 9 10 1014.8 1014.8 0.0
18/10:00pm 18.6 16.6 12.8 69 3.3 NNE 15 17 8 9 1015.2 1015.2 0.0
18/09:30pm 20.3 18.1 13.3 64 4.0 NNE 17 19 9 10 1015.3 1015.3 0.0
18/09:00pm 19.9 18.6 13.6 67 3.6 NNE 13 17 7 9 1015.3 1015.3 0.0
18/08:30pm 20.4 18.9 14.3 68 3.6 NNE 15 17 8 9 1015.3 1015.3 0.0
18/08:00pm 20.7 19.6 14.4 67 3.7 NNE 13 15 7 8 1015.2 1015.2 0.0
18/07:30pm 22.6 23.2 15.9 66 4.1 NNE 7 9 4 5 1015.0 1015.0 0.0
18/07:00pm 24.3 25.0 16.0 60 5.1 NNE 7 9 4 5 1014.9 1014.9 0.0
18/06:30pm 26.2 26.1 15.9 53 6.3 N 11 15 6 8 1014.9 1014.9 0.0
18/06:00pm 26.2 25.5 15.3 51 6.6 N 13 19 7 10 1014.9 1014.9 0.0
18/05:30pm 27.4 24.7 13.0 41 8.5 N 19 28 10 15 1014.8 1014.8 0.0
18/05:00pm 29.1 26.2 12.9 37 9.6 N 20 30 11 16 1014.8 1014.8 0.0
18/04:30pm 29.3 24.7 12.3 35 10.0 N 28 37 15 20 1014.9 1014.9 0.0
18/04:00pm 29.6 26.1 13.4 37 9.7 N 24 32 13 17 1015.2 1015.2 0.0
18/03:30pm 29.3 25.5 13.5 38 9.5 NNW 26 35 14 19 1015.6 1015.6 0.0
18/03:00pm 29.0 23.9 13.2 37 9.4 N 32 44 17 24 1016.2 1016.2 0.0
18/02:30pm 29.3 27.1 16.8 47 7.9 N 24 35 13 19 1016.8 1016.8 0.0
18/02:00pm 29.1 27.0 15.2 42 8.5 N 20 28 11 15 1017.1 1017.1 0.0
18/01:30pm 28.5 26.4 15.1 44 8.2 N 20 32 11 17 1017.5 1017.5 0.0
18/01:00pm 28.0 24.9 14.6 44 8.1 N 24 35 13 19 1017.8 1017.8 0.0
18/12:30pm 27.5 24.0 13.4 41 8.4 N 24 33 13 18 1018.2 1018.2 0.0
18/12:00pm 27.3 24.3 14.7 46 7.6 N 24 32 13 17 1018.5 1018.5 0.0
18/11:30am 26.2 22.1 12.6 43 7.9 N 26 33 14 18 1018.8 1018.9 0.0
18/11:00am 25.6 22.8 13.1 46 7.3 N 20 30 11 16 1019.1 1019.2 0.0
18/10:30am 24.2 19.3 11.2 44 7.3 N 28 37 15 20 1019.4 1019.5 0.0
18/10:00am 23.4 20.3 12.1 49 6.4 NNE 20 28 11 15 1019.5 1019.6 0.0
18/09:30am 21.8 18.6 11.8 53 5.6 NNE 20 28 11 15 1019.6 1019.7 0.0
18/09:00am 20.2 17.3 11.1 56 5.0 NNE 17 20 9 11 1019.8 1019.9 0.0
18/08:30am 18.2 15.8 11.5 65 3.7 NNE 15 19 8 10 1019.8 1019.9 0.0
18/08:00am 16.2 13.2 10.5 69 3.0 NNE 17 20 9 11 1019.7 1019.8 0.0
18/07:30am 15.4 11.7 9.3 67 3.2 NNE 19 22 10 12 1019.4 1019.5 0.0
18/07:00am 13.4 10.0 9.1 75 2.2 NNE 17 19 9 10 1019.2 1019.3 0.0
18/06:30am 13.8 10.3 8.8 72 2.5 NNE 17 22 9 12 1018.9 1019.0 0.0
18/06:00am 13.9 10.3 8.5 70 2.7 NNE 17 20 9 11 1018.6 1018.6 0.0
18/05:30am 14.8 11.4 9.0 68 3.0 NNE 17 20 9 11 1018.6 1018.6 0.0
18/05:00am 14.3 11.2 8.9 70 2.7 NNE 15 19 8 10 1018.5 1018.5 0.0
18/04:30am 14.4 11.3 9.0 70 2.8 N 15 19 8 10 1018.5 1018.5 0.0
18/04:00am 13.7 10.4 9.4 75 2.2 N 17 20 9 11 1018.5 1018.5 0.0
18/03:30am 13.7 10.0 9.6 76 2.1 NNE 19 20 10 11 1018.7 1018.7 0.0
18/03:00am 13.9 10.3 9.9 77 2.1 NNE 19 20 10 11 1018.8 1018.9 0.0
18/02:30am 13.7 10.4 9.7 77 2.1 NNE 17 19 9 10 1019.2 1019.3 0.0
18/02:00am 14.1 11.2 9.5 74 2.4 NNE 15 19 8 10 1019.4 1019.5 0.0
18/01:30am 14.8 11.8 9.4 70 2.8 NNE 15 19 8 10 1019.6 1019.7 0.0
18/01:00am 15.0 12.5 9.8 71 2.7 N 13 17 7 9 1019.7 1019.8 0.0
18/12:30am 16.8 13.1 10.0 64 3.6 NNE 20 24 11 13 1019.7 1019.8 0.0
18/12:00am 17.4 13.7 10.1 62 3.9 NNE 20 26 11 14 1019.8 1019.9 0.0
 
Date/Time
EDT
Temp
°C
App
Temp
°C
Dew
Point
°C
Rel
Hum
%
Delta-T
°C
Wind Press
QNH
hPa
Press
MSL
hPa
Rain since
9am
mm
Dir  Spd
km/h
Gust
km/h
Spd
kts
Gust
kts
17/11:30pm 17.4 14.2 10.1 62 3.9 NNE 17 20 9 11 1019.9 1020.0 0.0
17/11:00pm 19.6 15.1 10.0 54 5.2 NNE 24 32 13 17 1019.9 1020.0 0.0
17/10:30pm 19.6 16.0 9.8 53 5.3 NNE 19 24 10 13 1020.1 1020.2 0.0
17/10:00pm 21.9 17.0 9.8 46 6.6 NE 26 32 14 17 1020.0 1020.1 0.0
17/09:30pm 22.6 18.5 10.1 45 6.9 NE 22 30 12 16 1020.1 1020.2 0.0
17/09:00pm 22.2 19.8 10.0 46 6.6 ENE 13 20 7 11 1020.0 1020.1 0.0
17/08:30pm 21.5 19.5 10.3 49 6.1 ENE 11 15 6 8 1019.6 1019.7 0.0
17/08:00pm 21.9 20.2 11.3 51 5.9 ENE 11 13 6 7 1019.6 1019.7 0.0
17/07:30pm 22.8 21.6 11.5 49 6.4 ENE 9 13 5 7 1019.3 1019.4 0.0
17/07:00pm 23.2 21.8 12.2 50 6.3 NE 11 13 6 7 1019.2 1019.3 0.0
17/06:30pm 25.3 24.2 13.2 47 7.1 NE 11 17 6 9 1018.9 1019.0 0.0
17/06:00pm 26.5 25.7 13.9 45 7.5 NE 11 13 6 7 1018.8 1018.9 0.0
17/05:30pm 27.5 25.6 11.9 38 9.0 NNE 13 19 7 10 1018.8 1018.9 0.0
17/05:00pm 27.9 25.8 11.0 35 9.6 NNE 13 19 7 10 1019.0 1019.1 0.0
17/04:30pm 28.1 26.4 12.5 38 9.2 N 13 19 7 10 1019.2 1019.3 0.0

Other Formats:

Comma delimited format used in spreadsheet applications
http://www.bom.gov.au/fwo/IDV60801/IDV60801.94840.axf

JavaScript Object Notation format (JSON) in row-major order
http://www.bom.gov.au/fwo/IDV60801/IDV60801.94840.json